Time;durP1;ratioP1;P1;durP2;ratioP2;P2;SDS_P1;SDS_P2;PMS_P1;PMS_P2;Temp;Humidity;BMP_temperature;BMP_pressure;BME280_temperature;BME280_humidity;BME280_pressure;Samples;Min_cycle;Max_cycle;Signal;HPM_P1;HPM_P2
2021/12/07 00:00:21;;;;;;;16.88;14.25;;;;;20.80;99256.00;;;;2076604;28;20737;-47
2021/12/07 00:01:21;;;;;;;15.40;13.00;;;;;20.80;99198.00;;;;2076064;28;20215;-48
2021/12/07 00:02:22;;;;;;;15.87;13.40;;;;;20.80;99260.00;;;;2077820;28;20225;-48
2021/12/07 00:03:23;;;;;;;15.77;14.07;;;;;20.90;99258.00;;;;2077718;28;20686;-48
2021/12/07 00:04:23;;;;;;;17.03;13.50;;;;;20.80;99255.00;;;;2077794;28;20309;-47
2021/12/07 00:05:24;;;;;;;15.20;12.80;;;;;20.80;99255.00;;;;2076874;28;20222;-48
2021/12/07 00:06:25;;;;;;;13.50;11.73;;;;;20.80;99267.00;;;;2077385;28;20222;-47
2021/12/07 00:07:25;;;;;;;16.20;13.85;;;;;20.80;99277.00;;;;2077853;28;20733;-48
2021/12/07 00:08:27;;;;;;;15.07;12.60;;;;;20.80;99259.00;;;;2073393;28;20225;-47
2021/12/07 00:09:28;;;;;;;15.90;12.10;;;;;20.80;99265.00;;;;2076177;28;20404;-48
2021/12/07 00:10:28;;;;;;;16.27;12.80;;;;;20.80;99271.00;;;;2072407;28;20206;-47
2021/12/07 00:11:29;;;;;;;14.67;13.10;;;;;20.80;99271.00;;;;2077001;28;20221;-47
2021/12/07 00:12:35;;;;;;;13.63;12.23;;;;;20.80;99233.00;;;;2076727;28;20210;-48
2021/12/07 00:13:38;;;;;;;13.07;11.48;;;;;20.80;99271.00;;;;2076434;28;20306;-47
2021/12/07 00:14:41;;;;;;;14.23;12.30;;;;;20.80;99268.00;;;;2077067;28;20216;-47
2021/12/07 00:15:42;;;;;;;13.30;10.98;;;;;20.80;99272.00;;;;2081778;28;20298;-48
2021/12/07 00:16:45;;;;;;;12.70;11.10;;;;;20.70;99262.00;;;;2082735;28;20251;-47
2021/12/07 00:17:46;;;;;;;12.27;10.73;;;;;20.70;99274.00;;;;2085104;28;20565;-48
2021/12/07 00:18:46;;;;;;;13.43;10.83;;;;;20.70;99265.00;;;;2073730;28;20231;-47
2021/12/07 00:19:47;;;;;;;11.23;10.03;;;;;20.70;99277.00;;;;2085508;28;20212;-48
2021/12/07 00:20:47;;;;;;;12.60;10.83;;;;;20.70;99271.00;;;;2084715;28;20213;-48
2021/12/07 00:21:48;;;;;;;11.20;9.47;;;;;20.70;99276.00;;;;2086417;28;20215;-48
2021/12/07 00:22:52;;;;;;;12.02;10.23;;;;;20.70;99272.00;;;;2086285;28;20223;-47
2021/12/07 00:23:52;;;;;;;11.32;10.13;;;;;20.70;99271.00;;;;2085927;28;20225;-47
2021/12/07 00:24:53;;;;;;;11.43;10.23;;;;;20.70;99265.00;;;;2085820;28;20221;-47
2021/12/07 00:25:53;;;;;;;10.93;9.57;;;;;20.70;99274.00;;;;2086341;28;20639;-48
2021/12/07 00:26:54;;;;;;;12.70;10.10;;;;;20.70;99269.00;;;;2086195;28;20215;-49
2021/12/07 00:27:55;;;;;;;11.05;9.80;;;;;20.70;99278.00;;;;2085551;28;20212;-47
2021/12/07 00:28:56;;;;;;;11.63;9.70;;;;;20.70;99268.00;;;;2083524;28;20209;-47
2021/12/07 00:29:57;;;;;;;11.00;9.80;;;;;20.60;99266.00;;;;2084487;28;20201;-47
2021/12/07 00:31:08;;;;;;;10.73;9.60;;;;;20.70;99270.00;;;;2085152;28;20711;-48
2021/12/07 00:33:31;;;;;;;9.73;8.23;;;;;20.60;99270.00;;;;2085450;28;20217;-48
2021/12/07 00:35:34;;;;;;;10.13;8.77;;;;;20.60;99280.00;;;;2086141;28;20719;-46
2021/12/07 00:36:36;;;;;;;9.60;8.60;;;;;20.60;99282.00;;;;2085997;28;21053;-46
2021/12/07 00:37:36;;;;;;;10.43;9.07;;;;;20.60;99271.00;;;;2086955;28;20223;-46
2021/12/07 00:38:36;;;;;;;9.97;8.23;;;;;20.60;99277.00;;;;2086799;28;20342;-46
2021/12/07 00:39:37;;;;;;;8.90;8.00;;;;;20.60;99272.00;;;;2087040;28;20244;-47
2021/12/07 00:40:38;;;;;;;9.90;7.73;;;;;20.60;99277.00;;;;2086399;28;20223;-47
2021/12/07 00:41:38;;;;;;;9.65;7.78;;;;;20.60;99276.00;;;;2087282;28;20213;-46
2021/12/07 00:42:39;;;;;;;8.70;7.80;;;;;20.60;99284.00;;;;2086828;28;20308;-47
2021/12/07 00:43:39;;;;;;;9.80;8.10;;;;;20.60;99284.00;;;;2087748;28;20240;-46
2021/12/07 00:44:39;;;;;;;8.33;7.43;;;;;20.50;99279.00;;;;2087703;28;20216;-46
2021/12/07 00:45:43;;;;;;;8.93;8.00;;;;;20.50;99279.00;;;;2087888;28;20229;-47
2021/12/07 00:46:43;;;;;;;8.55;7.25;;;;;20.60;99291.00;;;;2084100;28;21013;-46
2021/12/07 00:47:46;;;;;;;8.37;7.47;;;;;20.50;99289.00;;;;2087872;28;20216;-46
2021/12/07 00:48:48;;;;;;;7.95;7.05;;;;;20.60;99289.00;;;;2087186;28;20251;-46
2021/12/07 00:49:48;;;;;;;9.05;7.10;;;;;20.50;99293.00;;;;2083505;28;20214;-47
2021/12/07 00:50:49;;;;;;;7.63;6.70;;;;;20.50;99294.00;;;;2078693;28;20232;-46
2021/12/07 00:51:49;;;;;;;7.77;6.97;;;;;20.50;99304.00;;;;2079607;28;20288;-46
2021/12/07 00:52:49;;;;;;;8.27;7.20;;;;;20.50;99293.00;;;;2083782;28;20228;-48
2021/12/07 00:53:50;;;;;;;6.53;5.93;;;;;20.50;99296.00;;;;2079625;28;20221;-48
2021/12/07 00:54:50;;;;;;;7.97;6.97;;;;;20.50;99294.00;;;;2079410;28;20792;-48
2021/12/07 00:55:53;;;;;;;7.00;6.30;;;;;20.50;99293.00;;;;2079674;28;20293;-48
2021/12/07 00:56:53;;;;;;;6.68;6.03;;;;;20.50;99299.00;;;;2078640;28;20295;-47
2021/12/07 00:57:56;;;;;;;7.23;6.43;;;;;20.50;99305.00;;;;2077352;28;20304;-48
2021/12/07 00:58:59;;;;;;;8.65;6.38;;;;;20.50;99310.00;;;;2077702;28;21163;-47
2021/12/07 01:00:00;;;;;;;5.97;5.38;;;;;20.50;99307.00;;;;2079528;28;20229;-48
2021/12/07 01:01:05;;;;;;;6.50;5.50;;;;;20.50;99307.00;;;;2078879;28;20804;-48
2021/12/07 01:02:05;;;;;;;6.25;5.60;;;;;20.40;99313.00;;;;2079670;28;20236;-47
2021/12/07 01:03:06;;;;;;;6.70;6.00;;;;;20.40;99312.00;;;;2078853;28;20217;-48
2021/12/07 01:04:06;;;;;;;6.53;5.90;;;;;20.50;99316.00;;;;2082899;28;20919;-46
2021/12/07 01:05:14;;;;;;;7.83;6.50;;;;;20.40;99300.00;;;;2086938;28;20221;-49
2021/12/07 01:06:43;;;;;;;6.28;5.68;;;;;20.40;99308.00;;;;2079824;28;20224;-48
2021/12/07 01:24:43;;;;;;;5.40;4.43;;;;;20.40;99332.00;;;;2074350;28;20221;-47
2021/12/07 01:25:44;;;;;;;4.83;4.13;;;;;20.40;99299.00;;;;2079917;28;20213;-48
2021/12/07 01:26:46;;;;;;;9.57;4.53;;;;;20.40;99345.00;;;;2079864;28;20632;-47
2021/12/07 01:27:50;;;;;;;5.03;4.30;;;;;20.40;99349.00;;;;2078906;28;20737;-48
2021/12/07 01:28:50;;;;;;;8.13;4.68;;;;;20.40;99342.00;;;;2079082;28;20267;-48
2021/12/07 01:30:03;;;;;;;6.63;3.73;;;;;20.40;99354.00;;;;2079627;28;20210;-47
2021/12/07 01:36:39;;;;;;;5.18;3.70;;;;;20.30;99361.00;;;;2070405;28;20996;-48
2021/12/07 01:45:52;;;;;;;4.18;3.20;;;;;20.20;99372.00;;;;2087726;28;20221;-48
2021/12/07 01:50:26;;;;;;;3.90;3.50;;;;;20.20;99379.00;;;;2087696;28;20216;-48
2021/12/07 01:59:36;;;;;;;3.88;3.00;;;;;20.20;99391.00;;;;2066918;28;20218;-48
2021/12/07 02:00:38;;;;;;;3.83;3.42;;;;;20.20;99388.00;;;;2069374;28;20233;-47
2021/12/07 02:01:39;;;;;;;4.68;3.10;;;;;20.20;99397.00;;;;2062747;28;20214;-48
2021/12/07 02:02:39;;;;;;;3.03;2.73;;;;;20.20;99395.00;;;;2069932;28;20219;-47
2021/12/07 02:03:40;;;;;;;4.47;3.00;;;;;20.10;99403.00;;;;2076871;28;20217;-48
2021/12/07 02:04:43;;;;;;;3.57;3.27;;;;;20.10;99405.00;;;;2081301;28;20248;-47
2021/12/07 02:05:44;;;;;;;3.72;3.30;;;;;20.10;99408.00;;;;2087195;28;20231;-47
2021/12/07 02:06:44;;;;;;;3.00;2.70;;;;;20.10;99406.00;;;;2087381;28;20302;-47
2021/12/07 02:07:45;;;;;;;4.27;3.60;;;;;20.10;99407.00;;;;2085525;28;20967;-48
2021/12/07 02:08:46;;;;;;;3.70;3.30;;;;;20.10;99402.00;;;;2087876;28;20660;-48
2021/12/07 02:09:52;;;;;;;3.77;3.00;;;;;20.10;99401.00;;;;2086862;28;20498;-47
2021/12/07 02:10:56;;;;;;;3.75;3.35;;;;;20.10;99408.00;;;;2086711;28;20347;-47
2021/12/07 02:12:01;;;;;;;3.25;2.95;;;;;20.10;99400.00;;;;2085327;28;20983;-47
2021/12/07 02:13:04;;;;;;;4.80;2.85;;;;;20.10;99415.00;;;;2079642;28;20271;-48
2021/12/07 02:14:16;;;;;;;4.78;2.95;;;;;20.10;99414.00;;;;2079609;28;20239;-48
2021/12/07 02:15:18;;;;;;;3.00;2.80;;;;;20.10;99415.00;;;;2082869;28;20224;-48
2021/12/07 02:16:19;;;;;;;4.32;3.20;;;;;20.10;99416.00;;;;2086913;28;20592;-49
2021/12/07 02:17:23;;;;;;;3.57;3.27;;;;;20.10;99422.00;;;;2087854;28;20209;-47
2021/12/07 02:18:24;;;;;;;2.90;2.60;;;;;20.10;99415.00;;;;2084400;28;20539;-48
2021/12/07 02:19:24;;;;;;;2.93;2.63;;;;;20.00;99412.00;;;;2079913;28;20686;-48
2021/12/07 02:20:26;;;;;;;3.50;3.03;;;;;20.00;99428.00;;;;2078931;28;20340;-47
2021/12/07 02:21:56;;;;;;;3.30;3.00;;;;;20.10;99425.00;;;;2079777;28;20586;-48
2021/12/07 02:22:56;;;;;;;2.90;2.60;;;;;20.10;99423.00;;;;2074051;28;20730;-47
2021/12/07 02:23:56;;;;;;;2.97;2.77;;;;;20.00;99430.00;;;;2083038;28;20228;-47
2021/12/07 02:24:57;;;;;;;3.17;2.87;;;;;20.10;99426.00;;;;2082822;28;20232;-47
2021/12/07 02:25:58;;;;;;;2.95;2.72;;;;;20.10;99429.00;;;;2082461;28;20206;-48
2021/12/07 02:26:58;;;;;;;3.10;2.77;;;;;20.00;99434.00;;;;2079738;28;20212;-48
2021/12/07 02:27:59;;;;;;;3.23;2.93;;;;;20.00;99427.00;;;;2079330;28;20209;-48
2021/12/07 02:29:02;;;;;;;2.70;2.50;;;;;20.00;99429.00;;;;2079775;28;20201;-48
2021/12/07 02:30:04;;;;;;;2.97;2.70;;;;;20.00;99427.00;;;;2085252;28;20533;-48
2021/12/07 02:31:07;;;;;;;2.80;2.40;;;;;20.00;99441.00;;;;2086134;28;20267;-48
2021/12/07 02:32:07;;;;;;;3.40;2.80;;;;;20.00;99438.00;;;;2087216;28;20316;-47
2021/12/07 02:33:09;;;;;;;3.23;2.70;;;;;20.00;99442.00;;;;2087211;28;20216;-48
2021/12/07 02:34:09;;;;;;;3.13;2.83;;;;;20.00;99442.00;;;;2087800;28;20213;-48
2021/12/07 02:35:12;;;;;;;3.20;3.00;;;;;20.00;99443.00;;;;2086770;28;20407;-48
2021/12/07 02:36:13;;;;;;;3.13;2.72;;;;;20.00;99445.00;;;;2086833;28;20227;-48
2021/12/07 02:37:14;;;;;;;2.70;2.50;;;;;20.00;99445.00;;;;2087777;28;20298;-48
2021/12/07 02:38:14;;;;;;;3.30;3.00;;;;;20.00;99456.00;;;;2087417;28;20217;-46
2021/12/07 02:39:14;;;;;;;3.40;3.10;;;;;20.00;99445.00;;;;2087821;28;20224;-47
2021/12/07 02:40:17;;;;;;;3.53;2.73;;;;;20.00;99443.00;;;;2087000;28;20205;-46
2021/12/07 02:41:17;;;;;;;3.33;3.03;;;;;20.00;99450.00;;;;2086724;28;20217;-48
2021/12/07 02:42:19;;;;;;;4.60;2.50;;;;;19.90;99442.00;;;;2087102;28;20236;-48
2021/12/07 02:43:20;;;;;;;3.30;3.10;;;;;20.00;99448.00;;;;2087074;28;20231;-48
2021/12/07 02:44:20;;;;;;;2.87;2.53;;;;;19.90;99452.00;;;;2085865;28;20696;-48
2021/12/07 02:45:21;;;;;;;3.30;3.00;;;;;19.90;99466.00;;;;2087614;28;20220;-49
2021/12/07 02:46:21;;;;;;;2.88;2.58;;;;;20.00;99463.00;;;;2087680;28;20220;-48
2021/12/07 02:47:22;;;;;;;4.00;2.90;;;;;20.00;99458.00;;;;2086574;28;20219;-48
2021/12/07 02:48:22;;;;;;;3.20;3.00;;;;;20.00;99468.00;;;;2079112;28;20224;-52
2021/12/07 02:49:23;;;;;;;3.60;2.90;;;;;19.90;99475.00;;;;2079316;28;20217;-49
2021/12/07 02:50:23;;;;;;;3.00;2.80;;;;;19.90;99473.00;;;;2078797;28;20305;-48
2021/12/07 02:51:23;;;;;;;3.10;2.90;;;;;19.90;99470.00;;;;2079170;28;20247;-47
2021/12/07 02:52:24;;;;;;;3.40;3.10;;;;;19.90;99473.00;;;;2079429;28;20588;-49
2021/12/07 02:53:26;;;;;;;3.03;2.83;;;;;19.90;99471.00;;;;2079716;28;20935;-48
2021/12/07 02:54:26;;;;;;;3.30;3.00;;;;;19.90;99474.00;;;;2079384;28;20217;-48
2021/12/07 02:55:27;;;;;;;3.30;3.00;;;;;19.90;99477.00;;;;2079113;28;20361;-48
2021/12/07 02:56:27;;;;;;;3.40;3.10;;;;;19.90;99470.00;;;;2079029;28;20280;-47
2021/12/07 02:57:30;;;;;;;3.73;3.27;;;;;19.90;99480.00;;;;2079118;28;20567;-48
2021/12/07 02:58:30;;;;;;;3.58;3.28;;;;;19.90;99478.00;;;;2079610;28;20471;-48
2021/12/07 02:59:31;;;;;;;3.63;3.33;;;;;19.90;99484.00;;;;2079594;28;20220;-47
2021/12/07 03:00:42;;;;;;;3.77;3.47;;;;;19.90;99493.00;;;;2077682;28;20636;-48
2021/12/07 03:01:47;;;;;;;3.20;3.00;;;;;19.90;99490.00;;;;2076617;28;20632;-49
2021/12/07 03:03:02;;;;;;;3.50;3.20;;;;;19.90;99488.00;;;;2086816;28;20216;-48
2021/12/07 03:04:16;;;;;;;3.60;3.30;;;;;19.90;99481.00;;;;2087190;28;20212;-48
2021/12/07 03:05:27;;;;;;;3.97;3.58;;;;;19.90;99487.00;;;;2087284;28;20654;-48
2021/12/07 03:06:44;;;;;;;3.60;3.30;;;;;19.90;99484.00;;;;2087382;28;20276;-48
2021/12/07 03:26:10;;;;;;;4.25;3.85;;;;;19.80;99513.00;;;;2086719;28;20213;-48
2021/12/07 03:27:10;;;;;;;3.80;3.50;;;;;19.80;99514.00;;;;2087464;28;20205;-48
2021/12/07 03:28:11;;;;;;;3.77;3.47;;;;;19.80;99525.00;;;;2082297;28;20217;-48
2021/12/07 03:29:11;;;;;;;4.67;3.40;;;;;19.80;99524.00;;;;2087662;28;20685;-48
2021/12/07 03:30:12;;;;;;;3.80;3.50;;;;;19.80;99529.00;;;;2087462;28;20205;-48
2021/12/07 03:31:15;;;;;;;4.33;3.87;;;;;19.80;99530.00;;;;2084107;28;20258;-49
2021/12/07 03:32:16;;;;;;;3.55;3.25;;;;;19.70;99535.00;;;;2073780;28;20226;-48
2021/12/07 03:33:16;;;;;;;4.68;4.10;;;;;19.80;99531.00;;;;2078322;28;20221;-48
2021/12/07 03:34:17;;;;;;;3.80;3.50;;;;;19.80;99543.00;;;;2078861;28;20205;-48
2021/12/07 03:35:17;;;;;;;4.10;3.80;;;;;19.80;99545.00;;;;2078878;28;20216;-48
2021/12/07 03:36:18;;;;;;;4.10;3.70;;;;;19.80;99539.00;;;;2078915;28;20214;-47
2021/12/07 03:37:18;;;;;;;4.07;3.70;;;;;19.70;99541.00;;;;2079124;28;20342;-48
2021/12/07 03:38:19;;;;;;;3.73;3.43;;;;;19.70;99538.00;;;;2078932;28;20213;-48
2021/12/07 03:39:19;;;;;;;3.63;3.33;;;;;19.70;99543.00;;;;2079236;28;20303;-48
2021/12/07 03:40:19;;;;;;;4.57;4.10;;;;;19.70;99539.00;;;;2078433;28;20218;-48
2021/12/07 03:41:20;;;;;;;3.80;3.50;;;;;19.70;99537.00;;;;2074819;28;20225;-48
2021/12/07 03:42:20;;;;;;;4.07;3.77;;;;;19.70;99542.00;;;;2078894;28;20953;-47
2021/12/07 03:43:21;;;;;;;3.50;3.20;;;;;19.80;99545.00;;;;2079079;28;20213;-47
2021/12/07 03:44:21;;;;;;;4.73;4.00;;;;;19.70;99543.00;;;;2078724;28;20300;-48
2021/12/07 03:45:22;;;;;;;4.00;3.70;;;;;19.70;99550.00;;;;2079086;28;20854;-48
2021/12/07 03:46:22;;;;;;;4.17;3.77;;;;;19.70;99550.00;;;;2078825;28;20256;-46
2021/12/07 03:47:23;;;;;;;3.70;3.40;;;;;19.70;99560.00;;;;2079169;28;20527;-48
2021/12/07 03:48:23;;;;;;;4.50;4.10;;;;;19.70;99552.00;;;;2077787;28;20218;-48
2021/12/07 03:49:23;;;;;;;3.87;3.57;;;;;19.70;99556.00;;;;2079255;28;20298;-48
2021/12/07 03:50:25;;;;;;;3.87;3.57;;;;;19.70;99553.00;;;;2077041;28;20294;-47
2021/12/07 03:51:25;;;;;;;3.90;3.60;;;;;19.70;99557.00;;;;2073813;28;20213;-47
2021/12/07 03:52:25;;;;;;;3.47;3.27;;;;;19.70;99562.00;;;;2078434;28;20220;-47
2021/12/07 03:53:28;;;;;;;3.73;3.40;;;;;19.70;99567.00;;;;2079033;28;20256;-47
2021/12/07 03:54:28;;;;;;;3.92;3.55;;;;;19.70;99568.00;;;;2078805;28;20302;-48
2021/12/07 03:55:29;;;;;;;3.50;3.20;;;;;19.70;99569.00;;;;2078518;28;20294;-48
2021/12/07 03:56:29;;;;;;;3.80;3.40;;;;;19.70;99571.00;;;;2079025;28;20566;-47
2021/12/07 03:57:30;;;;;;;4.07;3.67;;;;;19.70;99567.00;;;;2078623;28;20244;-47
2021/12/07 03:58:31;;;;;;;3.83;3.23;;;;;19.70;99571.00;;;;2079017;28;20289;-48
2021/12/07 03:59:31;;;;;;;3.23;2.93;;;;;19.70;99572.00;;;;2078854;28;20275;-47
2021/12/07 04:00:35;;;;;;;3.73;3.33;;;;;19.70;99571.00;;;;2078114;28;20479;-47
2021/12/07 04:01:35;;;;;;;4.15;3.85;;;;;19.70;99569.00;;;;2078686;28;20244;-47
2021/12/07 04:02:40;;;;;;;3.27;2.97;;;;;19.60;99572.00;;;;2078842;28;20300;-47
2021/12/07 04:03:41;;;;;;;4.18;3.30;;;;;19.60;99578.00;;;;2078874;28;20217;-48
2021/12/07 04:04:41;;;;;;;3.50;3.20;;;;;19.70;99574.00;;;;2077675;28;20305;-48
2021/12/07 04:05:48;;;;;;;3.07;2.83;;;;;19.60;99585.00;;;;2077846;28;20209;-48
2021/12/07 04:06:48;;;;;;;4.05;3.75;;;;;19.60;99578.00;;;;2075872;28;20210;-48
2021/12/07 04:07:48;;;;;;;3.60;3.30;;;;;19.60;99585.00;;;;2085737;28;20728;-48
2021/12/07 04:08:49;;;;;;;3.57;3.27;;;;;19.60;99579.00;;;;2086878;28;20590;-48
2021/12/07 04:09:49;;;;;;;4.00;3.50;;;;;19.60;99591.00;;;;2086859;28;20220;-48
2021/12/07 04:10:51;;;;;;;3.73;3.37;;;;;19.60;99586.00;;;;2086047;28;20720;-47
2021/12/07 04:11:51;;;;;;;3.40;3.10;;;;;19.60;99589.00;;;;2086844;28;20220;-48
2021/12/07 04:12:52;;;;;;;3.40;3.10;;;;;19.60;99583.00;;;;2086866;28;20216;-48
2021/12/07 04:13:52;;;;;;;3.25;2.95;;;;;19.60;99597.00;;;;2087234;28;20576;-49
2021/12/07 04:14:53;;;;;;;3.60;2.90;;;;;19.60;99596.00;;;;2086575;28;20256;-47
2021/12/07 04:15:53;;;;;;;3.73;3.30;;;;;19.70;99598.00;;;;2083509;28;20224;-48
2021/12/07 04:16:54;;;;;;;2.90;2.70;;;;;19.60;99591.00;;;;2086138;28;21599;-48
2021/12/07 04:17:55;;;;;;;4.73;3.67;;;;;19.60;99598.00;;;;2086411;28;20262;-48
2021/12/07 04:18:55;;;;;;;5.43;3.47;;;;;19.60;99614.00;;;;2086827;28;20229;-48
2021/12/07 04:19:56;;;;;;;3.47;3.17;;;;;19.60;99609.00;;;;2086488;28;20244;-47
2021/12/07 04:20:56;;;;;;;3.70;3.40;;;;;19.60;99611.00;;;;2086100;28;20212;-47
2021/12/07 04:21:57;;;;;;;3.47;3.10;;;;;19.60;99610.00;;;;2086871;28;20212;-45
2021/12/07 04:22:58;;;;;;;3.70;3.40;;;;;19.60;99606.00;;;;2086841;28;20742;-49
2021/12/07 04:23:58;;;;;;;3.93;2.83;;;;;19.60;99603.00;;;;2087285;28;20451;-49
2021/12/07 04:24:58;;;;;;;3.90;3.37;;;;;19.60;99607.00;;;;2084060;28;20213;-48
2021/12/07 04:26:00;;;;;;;3.30;3.00;;;;;19.60;99609.00;;;;2086772;28;20219;-47
2021/12/07 04:27:02;;;;;;;3.50;3.20;;;;;19.60;99615.00;;;;2086095;28;20216;-47
2021/12/07 04:28:03;;;;;;;3.03;2.80;;;;;19.60;99615.00;;;;2086270;28;20209;-48
2021/12/07 04:29:03;;;;;;;3.37;3.03;;;;;19.60;99617.00;;;;2086238;28;20216;-47
2021/12/07 04:30:06;;;;;;;3.43;3.13;;;;;19.60;99618.00;;;;2086739;28;20213;-47
2021/12/07 04:31:07;;;;;;;3.58;3.28;;;;;19.60;99618.00;;;;2085476;28;20300;-50
2021/12/07 04:32:07;;;;;;;3.43;3.13;;;;;19.60;99618.00;;;;2087039;28;20217;-47
2021/12/07 04:33:09;;;;;;;4.20;3.33;;;;;19.60;99613.00;;;;2085581;28;20208;-48
2021/12/07 04:34:10;;;;;;;3.75;3.42;;;;;19.60;99622.00;;;;2085001;28;20221;-48
2021/12/07 04:35:10;;;;;;;4.60;2.97;;;;;19.60;99616.00;;;;2077784;28;20225;-48
2021/12/07 04:36:11;;;;;;;3.77;3.30;;;;;19.50;99617.00;;;;2074944;28;20307;-48
2021/12/07 04:37:12;;;;;;;4.37;3.37;;;;;19.50;99612.00;;;;2077343;28;20320;-47
2021/12/07 04:38:12;;;;;;;4.13;3.57;;;;;19.60;99614.00;;;;2078166;28;20459;-48
2021/12/07 04:39:13;;;;;;;3.80;3.10;;;;;19.60;99621.00;;;;2078647;28;20298;-48
2021/12/07 04:40:16;;;;;;;3.43;3.13;;;;;19.60;99629.00;;;;2071989;28;20464;-48
2021/12/07 04:41:16;;;;;;;3.95;3.55;;;;;19.50;99629.00;;;;2085624;28;20690;-48
2021/12/07 04:42:17;;;;;;;3.03;2.83;;;;;19.60;99624.00;;;;2086018;28;20213;-48
2021/12/07 04:43:18;;;;;;;4.87;3.50;;;;;19.60;99630.00;;;;2084110;28;20239;-48
2021/12/07 04:44:19;;;;;;;7.93;3.83;;;;;19.60;99631.00;;;;2085739;28;20213;-48
2021/12/07 04:46:11;;;;;;;4.07;3.67;;;;;19.50;99630.00;;;;2079464;28;20466;-46
2021/12/07 04:47:00;;;;;;;4.78;3.53;;;;;19.60;99634.00;;;;2078336;28;20220;-48
2021/12/07 04:50:43;;;;;;;3.55;3.25;;;;;19.50;99639.00;;;;2086441;28;20239;-46
2021/12/07 04:58:00;;;;;;;4.20;3.75;;;;;19.50;99638.00;;;;2086665;28;20225;-48
2021/12/07 04:59:01;;;;;;;4.82;4.00;;;;;19.50;99632.00;;;;2086267;28;20612;-46
2021/12/07 05:00:04;;;;;;;5.47;4.30;;;;;19.50;99645.00;;;;2085646;28;20217;-46
2021/12/07 05:01:09;;;;;;;4.75;4.10;;;;;19.50;99638.00;;;;2079456;28;20275;-48
2021/12/07 05:02:10;;;;;;;5.47;3.40;;;;;19.50;99647.00;;;;2093801;28;20286;-47
2021/12/07 05:03:13;;;;;;;5.10;3.47;;;;;19.50;99647.00;;;;2089426;28;20205;-50
2021/12/07 05:04:22;;;;;;;4.20;3.80;;;;;19.50;99647.00;;;;2085463;28;20215;-47
2021/12/07 05:05:25;;;;;;;3.60;3.30;;;;;19.50;99644.00;;;;2085472;28;20244;-48
2021/12/07 05:06:30;;;;;;;4.15;3.45;;;;;19.60;99647.00;;;;2084886;28;20609;-47
2021/12/07 05:07:36;;;;;;;5.65;3.65;;;;;19.50;99647.00;;;;2085748;28;20308;-48
2021/12/07 05:15:25;;;;;;;5.57;3.37;;;;;19.50;99663.00;;;;2086209;28;20251;-44
2021/12/07 05:25:18;;;;;;;4.78;3.05;;;;;19.50;99683.00;;;;2087245;28;20212;-44
2021/12/07 05:37:57;;;;;;;5.53;3.03;;;;;19.50;99700.00;;;;2087918;28;20220;-46
2021/12/07 05:38:58;;;;;;;5.93;3.35;;;;;19.40;99708.00;;;;2088112;28;20209;-47
2021/12/07 05:39:59;;;;;;;5.97;3.15;;;;;19.40;99702.00;;;;2087595;28;20213;-45
2021/12/07 05:40:59;;;;;;;3.80;3.33;;;;;19.50;99698.00;;;;2086500;28;20216;-47
2021/12/07 05:42:01;;;;;;;4.20;2.93;;;;;19.40;99706.00;;;;2088079;28;20614;-45
2021/12/07 05:43:02;;;;;;;4.45;3.05;;;;;19.40;99705.00;;;;2087890;28;20205;-48
2021/12/07 05:44:03;;;;;;;3.85;2.60;;;;;19.40;99710.00;;;;2085294;28;20296;-46
2021/12/07 05:45:03;;;;;;;4.38;3.28;;;;;19.40;99715.00;;;;2081070;28;20285;-46
2021/12/07 05:46:04;;;;;;;5.40;3.20;;;;;19.40;99716.00;;;;2087008;28;20212;-45
2021/12/07 05:47:05;;;;;;;3.80;3.00;;;;;19.40;99711.00;;;;2083615;28;20738;-46
2021/12/07 05:48:05;;;;;;;3.47;2.70;;;;;19.40;99728.00;;;;2095659;28;20228;-45
2021/12/07 05:49:06;;;;;;;4.40;2.30;;;;;19.40;99725.00;;;;2088244;28;20233;-47
2021/12/07 05:50:08;;;;;;;5.17;3.17;;;;;19.40;99727.00;;;;2088195;28;25710;-47
2021/12/07 05:51:08;;;;;;;4.10;2.83;;;;;19.40;99722.00;;;;2086672;28;20224;-47
2021/12/07 05:52:08;;;;;;;5.93;3.57;;;;;19.40;99727.00;;;;2087349;28;20216;-46
2021/12/07 05:53:10;;;;;;;8.80;3.73;;;;;19.40;99731.00;;;;2088172;28;20215;-45
2021/12/07 05:54:10;;;;;;;4.68;3.30;;;;;19.40;99733.00;;;;2088021;28;20213;-46
2021/12/07 05:55:14;;;;;;;4.10;3.00;;;;;19.40;99741.00;;;;2087964;28;20221;-46
2021/12/07 05:56:15;;;;;;;6.47;3.05;;;;;19.40;99727.00;;;;2078364;28;20225;-45
2021/12/07 05:57:16;;;;;;;4.33;2.90;;;;;19.40;99726.00;;;;2079117;28;20213;-48
2021/12/07 05:58:20;;;;;;;4.47;2.87;;;;;19.40;99737.00;;;;2088087;28;20228;-47
2021/12/07 05:59:21;;;;;;;5.43;2.97;;;;;19.40;99736.00;;;;2086346;28;20213;-45
2021/12/07 06:00:26;;;;;;;4.30;2.80;;;;;19.40;99746.00;;;;2086008;28;20681;-47
2021/12/07 06:01:26;;;;;;;4.68;2.40;;;;;19.40;99748.00;;;;2086126;28;20762;-48
2021/12/07 06:02:26;;;;;;;4.70;3.10;;;;;19.40;99751.00;;;;2087510;28;20223;-48
2021/12/07 06:03:27;;;;;;;3.67;2.40;;;;;19.40;99743.00;;;;2087591;28;20685;-47
2021/12/07 06:04:30;;;;;;;5.13;3.30;;;;;19.40;99754.00;;;;2087400;28;20318;-46
2021/12/07 06:05:31;;;;;;;3.67;2.88;;;;;19.40;99756.00;;;;2087438;28;20290;-47
2021/12/07 06:06:31;;;;;;;5.50;3.10;;;;;19.50;99758.00;;;;2087273;28;20274;-46
2021/12/07 06:07:32;;;;;;;4.83;2.70;;;;;19.50;99754.00;;;;2085003;28;20593;-45
2021/12/07 06:08:32;;;;;;;7.93;3.00;;;;;19.50;99751.00;;;;2086720;28;20696;-46
2021/12/07 06:09:32;;;;;;;7.20;2.90;;;;;19.40;99760.00;;;;2086308;28;20270;-46
2021/12/07 06:10:33;;;;;;;4.27;2.30;;;;;19.50;99751.00;;;;2086211;28;20205;-47
2021/12/07 06:11:34;;;;;;;3.97;2.50;;;;;19.60;99758.00;;;;2078197;28;20217;-46
2021/12/07 06:12:34;;;;;;;3.50;2.80;;;;;19.60;99756.00;;;;2078956;28;20225;-45
2021/12/07 06:13:35;;;;;;;5.10;2.63;;;;;19.70;99756.00;;;;2087254;28;20491;-45
2021/12/07 06:14:42;;;;;;;4.43;3.07;;;;;19.70;99766.00;;;;2087504;28;20217;-48
2021/12/07 06:15:44;;;;;;;4.57;3.20;;;;;19.70;99762.00;;;;2087017;28;20578;-46
2021/12/07 06:16:48;;;;;;;9.73;2.95;;;;;19.70;99760.00;;;;2083902;28;20220;-45
2021/12/07 06:17:50;;;;;;;4.70;2.72;;;;;19.70;99772.00;;;;2087120;28;20230;-45
2021/12/07 06:18:50;;;;;;;3.58;2.17;;;;;19.70;99782.00;;;;2087069;28;20308;-46
2021/12/07 06:19:51;;;;;;;4.37;2.23;;;;;19.80;99781.00;;;;2087028;28;20223;-45
2021/12/07 06:20:52;;;;;;;5.13;2.33;;;;;19.80;99775.00;;;;2086028;28;20217;-46
2021/12/07 06:21:53;;;;;;;3.20;2.25;;;;;19.80;99772.00;;;;2086996;28;20217;-46
2021/12/07 06:22:53;;;;;;;3.30;2.33;;;;;19.80;99779.00;;;;2087673;28;20613;-45
2021/12/07 06:23:55;;;;;;;8.40;3.17;;;;;19.80;99778.00;;;;2087366;28;20209;-46
2021/12/07 06:24:55;;;;;;;4.30;2.72;;;;;19.90;99779.00;;;;2083293;28;20236;-48
2021/12/07 06:25:58;;;;;;;6.67;3.47;;;;;19.90;99774.00;;;;2080847;28;20220;-48
2021/12/07 06:26:58;;;;;;;3.83;2.65;;;;;19.80;99766.00;;;;2087541;28;20205;-46
2021/12/07 06:27:59;;;;;;;5.27;2.93;;;;;19.80;99773.00;;;;2087739;28;20587;-46
2021/12/07 06:29:00;;;;;;;5.50;2.40;;;;;19.80;99770.00;;;;2087560;28;20197;-47
2021/12/07 06:30:00;;;;;;;5.13;2.83;;;;;19.80;99768.00;;;;2087388;28;20213;-46
2021/12/07 06:31:01;;;;;;;4.70;2.53;;;;;19.90;99773.00;;;;2086639;28;20689;-46
2021/12/07 06:32:01;;;;;;;3.87;2.53;;;;;19.90;99773.00;;;;2078762;28;20201;-48
2021/12/07 06:33:01;;;;;;;5.87;2.63;;;;;19.90;99783.00;;;;2093698;28;20204;-46
2021/12/07 06:34:02;;;;;;;4.47;2.63;;;;;19.90;99769.00;;;;2093756;28;20226;-46
2021/12/07 06:35:02;;;;;;;4.50;2.60;;;;;19.90;99787.00;;;;2087084;28;20213;-48
2021/12/07 06:36:04;;;;;;;4.10;2.97;;;;;19.90;99788.00;;;;2086537;28;20684;-46
2021/12/07 06:37:04;;;;;;;7.20;2.45;;;;;19.90;99788.00;;;;2084706;28;20235;-46
2021/12/07 06:38:05;;;;;;;2.93;2.30;;;;;19.90;99795.00;;;;2087499;28;20212;-46
2021/12/07 06:39:06;;;;;;;4.00;2.47;;;;;19.90;99783.00;;;;2087447;28;21447;-48
2021/12/07 06:40:11;;;;;;;3.60;2.30;;;;;19.90;99784.00;;;;2087745;28;20716;-46
2021/12/07 06:41:12;;;;;;;5.40;2.67;;;;;20.00;99789.00;;;;2085885;28;20462;-45
2021/12/07 06:42:13;;;;;;;5.10;2.57;;;;;20.00;99780.00;;;;2082020;28;20243;-45
2021/12/07 06:43:13;;;;;;;5.72;2.35;;;;;20.00;99785.00;;;;2086077;28;20223;-46
2021/12/07 06:44:14;;;;;;;7.30;2.70;;;;;20.00;99782.00;;;;2081089;28;20217;-46
2021/12/07 06:45:14;;;;;;;5.37;2.60;;;;;20.00;99789.00;;;;2078043;28;20821;-45
2021/12/07 06:46:15;;;;;;;3.77;2.10;;;;;20.00;99774.00;;;;2075975;28;20244;-47
2021/12/07 06:47:17;;;;;;;4.40;2.30;;;;;20.00;99783.00;;;;2078230;28;20653;-47
2021/12/07 06:48:17;;;;;;;4.55;2.97;;;;;20.00;99790.00;;;;2081938;28;20215;-46